sensor_id;sensor_type;location;lat;lon;timestamp;P1;durP1;ratioP1;P2;durP2;ratioP2
59161;SDS011;44942;48.936;8.260;2022-11-20T00:01:37;5.60;;;4.23;;
59161;SDS011;44942;48.936;8.260;2022-11-20T00:06:38;6.80;;;4.53;;
59161;SDS011;44942;48.936;8.260;2022-11-20T00:11:38;5.07;;;4.40;;
59161;SDS011;44942;48.936;8.260;2022-11-20T00:16:39;6.00;;;4.30;;
59161;SDS011;44942;48.936;8.260;2022-11-20T00:21:39;5.27;;;4.40;;
59161;SDS011;44942;48.936;8.260;2022-11-20T00:26:40;5.30;;;4.47;;
59161;SDS011;44942;48.936;8.260;2022-11-20T00:31:40;5.10;;;4.30;;
59161;SDS011;44942;48.936;8.260;2022-11-20T00:36:41;4.87;;;4.37;;
59161;SDS011;44942;48.936;8.260;2022-11-20T00:41:41;4.75;;;4.07;;
59161;SDS011;44942;48.936;8.260;2022-11-20T00:46:42;4.70;;;4.20;;
59161;SDS011;44942;48.936;8.260;2022-11-20T00:51:42;5.03;;;4.00;;
59161;SDS011;44942;48.936;8.260;2022-11-20T00:56:43;5.50;;;4.07;;
59161;SDS011;44942;48.936;8.260;2022-11-20T01:01:44;5.00;;;4.47;;
59161;SDS011;44942;48.936;8.260;2022-11-20T01:06:44;4.90;;;4.20;;
59161;SDS011;44942;48.936;8.260;2022-11-20T01:11:45;5.37;;;3.93;;
59161;SDS011;44942;48.936;8.260;2022-11-20T01:16:47;5.60;;;4.37;;
59161;SDS011;44942;48.936;8.260;2022-11-20T01:21:50;4.97;;;4.30;;
59161;SDS011;44942;48.936;8.260;2022-11-20T01:26:52;4.43;;;3.90;;
59161;SDS011;44942;48.936;8.260;2022-11-20T01:31:53;5.00;;;4.00;;
59161;SDS011;44942;48.936;8.260;2022-11-20T01:36:53;7.97;;;3.73;;
59161;SDS011;44942;48.936;8.260;2022-11-20T01:41:55;4.50;;;3.57;;
59161;SDS011;44942;48.936;8.260;2022-11-20T01:47:57;3.63;;;3.30;;
59161;SDS011;44942;48.936;8.260;2022-11-20T01:52:49;4.28;;;3.55;;
59161;SDS011;44942;48.936;8.260;2022-11-20T01:57:55;5.05;;;3.47;;
59161;SDS011;44942;48.936;8.260;2022-11-20T02:03:03;5.15;;;3.60;;
59161;SDS011;44942;48.936;8.260;2022-11-20T02:08:08;4.18;;;3.47;;
59161;SDS011;44942;48.936;8.260;2022-11-20T02:13:09;4.40;;;3.43;;
59161;SDS011;44942;48.936;8.260;2022-11-20T02:18:28;3.70;;;3.30;;
59161;SDS011;44942;48.936;8.260;2022-11-20T02:23:32;4.55;;;3.20;;
59161;SDS011;44942;48.936;8.260;2022-11-20T02:28:38;4.68;;;3.40;;
59161;SDS011;44942;48.936;8.260;2022-11-20T02:33:39;3.50;;;3.20;;
59161;SDS011;44942;48.936;8.260;2022-11-20T02:38:40;3.40;;;3.10;;
59161;SDS011;44942;48.936;8.260;2022-11-20T02:43:41;4.68;;;3.22;;
59161;SDS011;44942;48.936;8.260;2022-11-20T02:48:42;4.17;;;3.37;;
59161;SDS011;44942;48.936;8.260;2022-11-20T02:53:42;5.33;;;3.23;;
59161;SDS011;44942;48.936;8.260;2022-11-20T02:58:43;4.80;;;3.20;;
59161;SDS011;44942;48.936;8.260;2022-11-20T03:03:44;3.33;;;3.03;;
59161;SDS011;44942;48.936;8.260;2022-11-20T03:08:44;3.67;;;2.97;;
59161;SDS011;44942;48.936;8.260;2022-11-20T03:13:45;5.90;;;3.53;;
59161;SDS011;44942;48.936;8.260;2022-11-20T03:18:46;3.80;;;3.37;;
59161;SDS011;44942;48.936;8.260;2022-11-20T03:23:46;3.78;;;3.28;;
59161;SDS011;44942;48.936;8.260;2022-11-20T03:28:51;3.50;;;3.10;;
59161;SDS011;44942;48.936;8.260;2022-11-20T03:33:53;3.10;;;2.80;;
59161;SDS011;44942;48.936;8.260;2022-11-20T03:38:54;3.38;;;2.80;;
59161;SDS011;44942;48.936;8.260;2022-11-20T03:43:56;3.97;;;2.90;;
59161;SDS011;44942;48.936;8.260;2022-11-20T03:48:59;6.00;;;3.00;;
59161;SDS011;44942;48.936;8.260;2022-11-20T03:54:00;3.15;;;2.80;;
59161;SDS011;44942;48.936;8.260;2022-11-20T03:59:03;3.20;;;2.90;;
59161;SDS011;44942;48.936;8.260;2022-11-20T04:04:04;3.65;;;3.03;;
59161;SDS011;44942;48.936;8.260;2022-11-20T04:09:05;3.40;;;2.90;;
59161;SDS011;44942;48.936;8.260;2022-11-20T04:14:06;3.38;;;3.03;;
59161;SDS011;44942;48.936;8.260;2022-11-20T04:19:14;3.13;;;2.83;;
59161;SDS011;44942;48.936;8.260;2022-11-20T04:24:16;3.25;;;2.55;;
59161;SDS011;44942;48.936;8.260;2022-11-20T04:29:16;2.70;;;2.50;;
59161;SDS011;44942;48.936;8.260;2022-11-20T04:34:17;3.17;;;2.87;;
59161;SDS011;44942;48.936;8.260;2022-11-20T04:39:17;3.50;;;2.73;;
59161;SDS011;44942;48.936;8.260;2022-11-20T04:44:18;3.67;;;2.67;;
59161;SDS011;44942;48.936;8.260;2022-11-20T04:49:19;3.60;;;2.47;;
59161;SDS011;44942;48.936;8.260;2022-11-20T04:54:19;3.10;;;2.80;;
59161;SDS011;44942;48.936;8.260;2022-11-20T04:59:20;3.70;;;2.78;;
59161;SDS011;44942;48.936;8.260;2022-11-20T05:04:21;4.00;;;3.10;;
59161;SDS011;44942;48.936;8.260;2022-11-20T05:09:21;2.60;;;2.17;;
59161;SDS011;44942;48.936;8.260;2022-11-20T05:14:22;5.53;;;2.77;;
59161;SDS011;44942;48.936;8.260;2022-11-20T05:19:22;2.83;;;2.40;;
59161;SDS011;44942;48.936;8.260;2022-11-20T05:24:23;2.73;;;2.40;;
59161;SDS011;44942;48.936;8.260;2022-11-20T05:29:24;3.50;;;2.50;;
59161;SDS011;44942;48.936;8.260;2022-11-20T05:34:24;4.17;;;2.83;;
59161;SDS011;44942;48.936;8.260;2022-11-20T05:39:25;2.80;;;2.50;;
59161;SDS011;44942;48.936;8.260;2022-11-20T05:44:25;2.90;;;2.60;;
59161;SDS011;44942;48.936;8.260;2022-11-20T05:49:26;2.87;;;2.53;;
59161;SDS011;44942;48.936;8.260;2022-11-20T05:54:26;2.67;;;2.40;;
59161;SDS011;44942;48.936;8.260;2022-11-20T05:59:27;2.63;;;2.27;;
59161;SDS011;44942;48.936;8.260;2022-11-20T06:04:27;3.37;;;2.50;;
59161;SDS011;44942;48.936;8.260;2022-11-20T06:09:28;4.57;;;2.53;;
59161;SDS011;44942;48.936;8.260;2022-11-20T06:14:29;3.33;;;2.53;;
59161;SDS011;44942;48.936;8.260;2022-11-20T06:19:29;3.23;;;2.40;;
59161;SDS011;44942;48.936;8.260;2022-11-20T06:24:30;3.00;;;2.27;;
59161;SDS011;44942;48.936;8.260;2022-11-20T06:29:30;2.33;;;2.13;;
59161;SDS011;44942;48.936;8.260;2022-11-20T06:34:31;2.80;;;2.30;;
59161;SDS011;44942;48.936;8.260;2022-11-20T06:39:32;2.50;;;2.27;;
59161;SDS011;44942;48.936;8.260;2022-11-20T06:44:32;2.50;;;2.30;;
59161;SDS011;44942;48.936;8.260;2022-11-20T06:49:33;2.43;;;2.23;;
59161;SDS011;44942;48.936;8.260;2022-11-20T06:54:34;2.75;;;2.25;;
59161;SDS011;44942;48.936;8.260;2022-11-20T06:59:34;2.73;;;2.30;;
59161;SDS011;44942;48.936;8.260;2022-11-20T07:04:35;2.30;;;2.10;;
59161;SDS011;44942;48.936;8.260;2022-11-20T07:09:35;2.50;;;2.30;;
59161;SDS011;44942;48.936;8.260;2022-11-20T07:14:36;2.47;;;2.10;;
59161;SDS011;44942;48.936;8.260;2022-11-20T07:19:36;2.70;;;2.30;;
59161;SDS011;44942;48.936;8.260;2022-11-20T07:24:37;2.67;;;2.30;;
59161;SDS011;44942;48.936;8.260;2022-11-20T07:29:37;2.30;;;2.10;;
59161;SDS011;44942;48.936;8.260;2022-11-20T07:34:38;2.30;;;2.00;;
59161;SDS011;44942;48.936;8.260;2022-11-20T07:39:39;3.87;;;2.13;;
59161;SDS011;44942;48.936;8.260;2022-11-20T07:44:39;2.50;;;2.13;;
59161;SDS011;44942;48.936;8.260;2022-11-20T07:49:40;2.37;;;2.07;;
59161;SDS011;44942;48.936;8.260;2022-11-20T07:54:40;2.67;;;2.10;;
59161;SDS011;44942;48.936;8.260;2022-11-20T07:59:41;3.30;;;2.47;;
59161;SDS011;44942;48.936;8.260;2022-11-20T08:04:41;2.73;;;2.30;;
59161;SDS011;44942;48.936;8.260;2022-11-20T08:09:42;3.47;;;2.13;;
59161;SDS011;44942;48.936;8.260;2022-11-20T08:14:42;2.50;;;2.30;;
59161;SDS011;44942;48.936;8.260;2022-11-20T08:19:43;2.70;;;2.23;;
59161;SDS011;44942;48.936;8.260;2022-11-20T08:24:44;5.03;;;2.30;;
59161;SDS011;44942;48.936;8.260;2022-11-20T08:29:44;3.40;;;2.10;;
59161;SDS011;44942;48.936;8.260;2022-11-20T08:34:45;5.57;;;2.43;;
59161;SDS011;44942;48.936;8.260;2022-11-20T08:39:46;12.10;;;2.25;;
59161;SDS011;44942;48.936;8.260;2022-11-20T08:44:46;3.80;;;2.33;;
59161;SDS011;44942;48.936;8.260;2022-11-20T08:49:47;3.93;;;2.50;;
59161;SDS011;44942;48.936;8.260;2022-11-20T08:54:48;3.10;;;2.33;;
59161;SDS011;44942;48.936;8.260;2022-11-20T08:59:48;2.40;;;2.13;;
59161;SDS011;44942;48.936;8.260;2022-11-20T09:04:49;3.40;;;2.50;;
59161;SDS011;44942;48.936;8.260;2022-11-20T09:09:49;4.80;;;2.40;;
59161;SDS011;44942;48.936;8.260;2022-11-20T09:14:50;2.87;;;2.20;;
59161;SDS011;44942;48.936;8.260;2022-11-20T09:19:50;3.30;;;2.20;;
59161;SDS011;44942;48.936;8.260;2022-11-20T09:24:51;2.67;;;1.93;;
59161;SDS011;44942;48.936;8.260;2022-11-20T09:29:52;2.63;;;1.97;;
59161;SDS011;44942;48.936;8.260;2022-11-20T09:34:52;3.23;;;2.10;;
59161;SDS011;44942;48.936;8.260;2022-11-20T09:39:53;20.80;;;3.00;;
59161;SDS011;44942;48.936;8.260;2022-11-20T09:50:20;3.67;;;1.98;;
59161;SDS011;44942;48.936;8.260;2022-11-20T09:55:26;4.50;;;2.10;;
59161;SDS011;44942;48.936;8.260;2022-11-20T10:00:29;3.10;;;2.00;;
59161;SDS011;44942;48.936;8.260;2022-11-20T10:05:31;3.00;;;1.97;;
59161;SDS011;44942;48.936;8.260;2022-11-20T10:10:43;3.63;;;1.90;;
59161;SDS011;44942;48.936;8.260;2022-11-20T10:32:16;113.93;;;81.45;;
59161;SDS011;44942;48.936;8.260;2022-11-20T10:37:23;145.30;;;102.72;;
59161;SDS011;44942;48.936;8.260;2022-11-20T10:42:28;152.10;;;105.60;;
59161;SDS011;44942;48.936;8.260;2022-11-20T10:47:39;130.48;;;93.45;;
59161;SDS011;44942;48.936;8.260;2022-11-20T11:03:30;143.30;;;102.90;;
59161;SDS011;44942;48.936;8.260;2022-11-20T11:08:34;131.98;;;96.20;;
59161;SDS011;44942;48.936;8.260;2022-11-20T11:13:37;143.38;;;102.00;;
59161;SDS011;44942;48.936;8.260;2022-11-20T11:18:38;127.97;;;92.47;;
59161;SDS011;44942;48.936;8.260;2022-11-20T11:23:40;132.45;;;93.28;;
59161;SDS011;44942;48.936;8.260;2022-11-20T11:28:42;128.32;;;90.20;;
59161;SDS011;44942;48.936;8.260;2022-11-20T11:34:06;122.97;;;89.47;;
59161;SDS011;44942;48.936;8.260;2022-11-20T11:39:11;113.20;;;82.43;;
59161;SDS011;44942;48.936;8.260;2022-11-20T11:44:19;109.78;;;79.63;;
59161;SDS011;44942;48.936;8.260;2022-11-20T11:49:43;111.00;;;79.57;;
59161;SDS011;44942;48.936;8.260;2022-11-20T11:54:55;112.37;;;80.00;;
59161;SDS011;44942;48.936;8.260;2022-11-20T12:00:08;107.22;;;77.07;;
59161;SDS011;44942;48.936;8.260;2022-11-20T12:05:27;105.90;;;74.90;;
59161;SDS011;44942;48.936;8.260;2022-11-20T12:15:46;87.20;;;61.35;;
59161;SDS011;44942;48.936;8.260;2022-11-20T12:20:52;97.72;;;67.75;;
59161;SDS011;44942;48.936;8.260;2022-11-20T12:37:26;78.32;;;55.42;;
59161;SDS011;44942;48.936;8.260;2022-11-20T12:42:57;70.13;;;51.38;;
59161;SDS011;44942;48.936;8.260;2022-11-20T12:48:38;66.57;;;49.50;;
59161;SDS011;44942;48.936;8.260;2022-11-20T12:59:05;66.78;;;46.72;;
59161;SDS011;44942;48.936;8.260;2022-11-20T13:04:16;66.22;;;46.67;;
59161;SDS011;44942;48.936;8.260;2022-11-20T13:09:19;61.92;;;43.17;;
59161;SDS011;44942;48.936;8.260;2022-11-20T13:20:00;55.03;;;37.83;;
59161;SDS011;44942;48.936;8.260;2022-11-20T13:25:08;58.03;;;38.22;;
59161;SDS011;44942;48.936;8.260;2022-11-20T13:30:13;57.80;;;39.63;;
59161;SDS011;44942;48.936;8.260;2022-11-20T13:35:24;50.75;;;35.83;;
59161;SDS011;44942;48.936;8.260;2022-11-20T13:40:30;58.17;;;37.47;;
59161;SDS011;44942;48.936;8.260;2022-11-20T13:45:31;62.83;;;36.75;;
59161;SDS011;44942;48.936;8.260;2022-11-20T13:55:38;45.78;;;32.33;;
59161;SDS011;44942;48.936;8.260;2022-11-20T14:01:19;43.38;;;29.20;;
59161;SDS011;44942;48.936;8.260;2022-11-20T14:11:29;37.00;;;25.45;;
59161;SDS011;44942;48.936;8.260;2022-11-20T14:16:31;35.50;;;24.27;;
59161;SDS011;44942;48.936;8.260;2022-11-20T14:21:35;31.70;;;21.35;;
59161;SDS011;44942;48.936;8.260;2022-11-20T14:26:35;32.77;;;19.63;;
59161;SDS011;44942;48.936;8.260;2022-11-20T14:31:41;32.97;;;18.35;;
59161;SDS011;44942;48.936;8.260;2022-11-20T14:36:42;26.38;;;16.88;;
59161;SDS011;44942;48.936;8.260;2022-11-20T14:41:50;25.05;;;14.90;;
59161;SDS011;44942;48.936;8.260;2022-11-20T14:46:51;22.02;;;14.13;;
59161;SDS011;44942;48.936;8.260;2022-11-20T14:52:09;19.42;;;13.02;;
59161;SDS011;44942;48.936;8.260;2022-11-20T14:57:26;20.30;;;13.32;;
59161;SDS011;44942;48.936;8.260;2022-11-20T15:02:29;19.17;;;12.00;;
59161;SDS011;44942;48.936;8.260;2022-11-20T15:07:31;16.08;;;10.93;;
59161;SDS011;44942;48.936;8.260;2022-11-20T15:12:41;15.32;;;10.85;;
59161;SDS011;44942;48.936;8.260;2022-11-20T15:17:53;14.25;;;10.20;;
59161;SDS011;44942;48.936;8.260;2022-11-20T15:22:54;17.93;;;9.77;;
59161;SDS011;44942;48.936;8.260;2022-11-20T15:27:55;11.87;;;8.40;;
59161;SDS011;44942;48.936;8.260;2022-11-20T15:32:56;17.00;;;9.55;;
59161;SDS011;44942;48.936;8.260;2022-11-20T15:37:57;18.63;;;11.13;;
59161;SDS011;44942;48.936;8.260;2022-11-20T15:42:57;27.30;;;16.30;;
59161;SDS011;44942;48.936;8.260;2022-11-20T15:48:04;111.50;;;52.45;;
59161;SDS011;44942;48.936;8.260;2022-11-20T15:53:09;209.23;;;109.30;;
59161;SDS011;44942;48.936;8.260;2022-11-20T15:58:10;308.02;;;154.15;;
59161;SDS011;44942;48.936;8.260;2022-11-20T16:03:11;312.13;;;160.63;;
59161;SDS011;44942;48.936;8.260;2022-11-20T16:08:13;322.35;;;164.50;;
59161;SDS011;44942;48.936;8.260;2022-11-20T16:13:14;303.75;;;155.75;;
59161;SDS011;44942;48.936;8.260;2022-11-20T16:18:35;279.73;;;142.38;;
59161;SDS011;44942;48.936;8.260;2022-11-20T16:23:36;290.50;;;152.27;;
59161;SDS011;44942;48.936;8.260;2022-11-20T16:28:36;281.23;;;143.27;;
59161;SDS011;44942;48.936;8.260;2022-11-20T16:33:37;276.10;;;140.70;;
59161;SDS011;44942;48.936;8.260;2022-11-20T16:38:38;248.27;;;128.68;;
59161;SDS011;44942;48.936;8.260;2022-11-20T16:43:46;242.85;;;127.22;;
59161;SDS011;44942;48.936;8.260;2022-11-20T16:48:52;219.07;;;110.53;;
59161;SDS011;44942;48.936;8.260;2022-11-20T16:53:54;203.10;;;105.93;;
59161;SDS011;44942;48.936;8.260;2022-11-20T16:58:58;182.75;;;93.70;;
59161;SDS011;44942;48.936;8.260;2022-11-20T17:04:02;176.98;;;91.28;;
59161;SDS011;44942;48.936;8.260;2022-11-20T17:09:04;177.68;;;94.30;;
59161;SDS011;44942;48.936;8.260;2022-11-20T17:14:05;155.48;;;78.07;;
59161;SDS011;44942;48.936;8.260;2022-11-20T17:19:06;168.93;;;87.57;;
59161;SDS011;44942;48.936;8.260;2022-11-20T17:24:09;158.90;;;78.60;;
59161;SDS011;44942;48.936;8.260;2022-11-20T17:29:12;147.98;;;74.38;;
59161;SDS011;44942;48.936;8.260;2022-11-20T17:34:14;119.13;;;60.67;;
59161;SDS011;44942;48.936;8.260;2022-11-20T17:39:16;127.28;;;64.75;;
59161;SDS011;44942;48.936;8.260;2022-11-20T17:44:16;126.03;;;59.65;;
59161;SDS011;44942;48.936;8.260;2022-11-20T17:49:17;103.30;;;53.67;;
59161;SDS011;44942;48.936;8.260;2022-11-20T17:54:17;106.90;;;51.63;;
59161;SDS011;44942;48.936;8.260;2022-11-20T17:59:18;95.67;;;47.53;;
59161;SDS011;44942;48.936;8.260;2022-11-20T18:04:19;76.87;;;41.37;;
59161;SDS011;44942;48.936;8.260;2022-11-20T18:09:19;79.70;;;39.63;;
59161;SDS011;44942;48.936;8.260;2022-11-20T18:14:20;73.57;;;37.80;;
59161;SDS011;44942;48.936;8.260;2022-11-20T18:19:36;73.32;;;35.65;;
59161;SDS011;44942;48.936;8.260;2022-11-20T18:24:38;66.72;;;34.35;;
59161;SDS011;44942;48.936;8.260;2022-11-20T18:29:39;59.92;;;30.08;;
59161;SDS011;44942;48.936;8.260;2022-11-20T18:34:40;63.33;;;31.73;;
59161;SDS011;44942;48.936;8.260;2022-11-20T18:39:41;53.77;;;27.43;;
59161;SDS011;44942;48.936;8.260;2022-11-20T18:44:42;51.70;;;26.90;;
59161;SDS011;44942;48.936;8.260;2022-11-20T18:54:56;46.20;;;24.17;;
59161;SDS011;44942;48.936;8.260;2022-11-20T18:59:57;42.53;;;22.55;;
59161;SDS011;44942;48.936;8.260;2022-11-20T19:05:00;39.75;;;19.58;;
59161;SDS011;44942;48.936;8.260;2022-11-20T19:10:01;41.43;;;21.10;;
59161;SDS011;44942;48.936;8.260;2022-11-20T19:15:02;37.83;;;19.63;;
59161;SDS011;44942;48.936;8.260;2022-11-20T19:20:03;39.95;;;20.55;;
59161;SDS011;44942;48.936;8.260;2022-11-20T19:25:04;30.67;;;16.83;;
59161;SDS011;44942;48.936;8.260;2022-11-20T19:30:05;30.95;;;15.18;;
59161;SDS011;44942;48.936;8.260;2022-11-20T19:35:06;28.67;;;15.63;;
59161;SDS011;44942;48.936;8.260;2022-11-20T19:40:07;31.08;;;15.85;;
59161;SDS011;44942;48.936;8.260;2022-11-20T19:45:08;32.50;;;17.20;;
59161;SDS011;44942;48.936;8.260;2022-11-20T19:50:08;25.60;;;13.65;;
59161;SDS011;44942;48.936;8.260;2022-11-20T19:55:09;21.80;;;11.60;;
59161;SDS011;44942;48.936;8.260;2022-11-20T20:00:10;26.83;;;13.37;;
59161;SDS011;44942;48.936;8.260;2022-11-20T20:05:12;21.35;;;12.57;;
59161;SDS011;44942;48.936;8.260;2022-11-20T20:10:13;23.80;;;13.57;;
59161;SDS011;44942;48.936;8.260;2022-11-20T20:15:13;24.40;;;12.30;;
59161;SDS011;44942;48.936;8.260;2022-11-20T20:20:14;21.80;;;11.90;;
59161;SDS011;44942;48.936;8.260;2022-11-20T20:25:15;23.00;;;12.20;;
59161;SDS011;44942;48.936;8.260;2022-11-20T20:30:15;18.20;;;11.07;;
59161;SDS011;44942;48.936;8.260;2022-11-20T20:35:16;19.80;;;10.97;;
59161;SDS011;44942;48.936;8.260;2022-11-20T20:40:17;17.20;;;10.27;;
59161;SDS011;44942;48.936;8.260;2022-11-20T20:45:18;25.83;;;10.32;;
59161;SDS011;44942;48.936;8.260;2022-11-20T20:50:18;23.43;;;10.43;;
59161;SDS011;44942;48.936;8.260;2022-11-20T20:55:19;20.85;;;9.13;;
59161;SDS011;44942;48.936;8.260;2022-11-20T21:00:20;17.93;;;9.57;;
59161;SDS011;44942;48.936;8.260;2022-11-20T21:05:20;16.80;;;8.60;;
59161;SDS011;44942;48.936;8.260;2022-11-20T21:10:21;14.97;;;8.33;;
59161;SDS011;44942;48.936;8.260;2022-11-20T21:15:21;12.43;;;7.43;;
59161;SDS011;44942;48.936;8.260;2022-11-20T21:20:22;15.30;;;7.97;;
59161;SDS011;44942;48.936;8.260;2022-11-20T21:25:41;16.10;;;8.45;;
59161;SDS011;44942;48.936;8.260;2022-11-20T21:30:42;11.53;;;6.97;;
59161;SDS011;44942;48.936;8.260;2022-11-20T21:35:43;13.70;;;8.17;;
59161;SDS011;44942;48.936;8.260;2022-11-20T21:40:43;11.65;;;7.32;;
59161;SDS011;44942;48.936;8.260;2022-11-20T21:45:44;11.37;;;7.63;;
59161;SDS011;44942;48.936;8.260;2022-11-20T21:50:44;11.53;;;6.23;;
59161;SDS011;44942;48.936;8.260;2022-11-20T21:55:51;13.23;;;6.63;;
59161;SDS011;44942;48.936;8.260;2022-11-20T22:00:53;11.73;;;6.65;;
59161;SDS011;44942;48.936;8.260;2022-11-20T22:05:54;11.73;;;6.97;;
59161;SDS011;44942;48.936;8.260;2022-11-20T22:11:00;10.25;;;6.60;;
59161;SDS011;44942;48.936;8.260;2022-11-20T22:16:02;13.82;;;6.70;;
59161;SDS011;44942;48.936;8.260;2022-11-20T22:21:05;11.20;;;6.33;;
59161;SDS011;44942;48.936;8.260;2022-11-20T22:26:07;11.10;;;5.90;;
59161;SDS011;44942;48.936;8.260;2022-11-20T22:31:09;9.60;;;5.43;;
59161;SDS011;44942;48.936;8.260;2022-11-20T22:36:11;8.80;;;5.25;;
59161;SDS011;44942;48.936;8.260;2022-11-20T22:41:17;9.05;;;5.80;;
59161;SDS011;44942;48.936;8.260;2022-11-20T22:46:24;9.35;;;6.03;;
59161;SDS011;44942;48.936;8.260;2022-11-20T22:51:26;8.50;;;5.68;;
59161;SDS011;44942;48.936;8.260;2022-11-20T22:56:28;7.72;;;4.47;;
59161;SDS011;44942;48.936;8.260;2022-11-20T23:01:32;7.17;;;4.30;;
59161;SDS011;44942;48.936;8.260;2022-11-20T23:06:34;7.47;;;4.30;;
59161;SDS011;44942;48.936;8.260;2022-11-20T23:11:34;6.18;;;4.40;;
59161;SDS011;44942;48.936;8.260;2022-11-20T23:16:35;8.25;;;4.57;;
59161;SDS011;44942;48.936;8.260;2022-11-20T23:21:37;7.03;;;4.07;;
59161;SDS011;44942;48.936;8.260;2022-11-20T23:26:39;7.10;;;4.65;;
59161;SDS011;44942;48.936;8.260;2022-11-20T23:31:40;6.15;;;3.92;;
59161;SDS011;44942;48.936;8.260;2022-11-20T23:36:41;8.33;;;4.70;;
59161;SDS011;44942;48.936;8.260;2022-11-20T23:41:41;7.23;;;4.30;;
59161;SDS011;44942;48.936;8.260;2022-11-20T23:46:42;5.90;;;4.07;;
59161;SDS011;44942;48.936;8.260;2022-11-20T23:51:42;8.10;;;4.50;;
59161;SDS011;44942;48.936;8.260;2022-11-20T23:56:43;6.93;;;4.27;;
